createdAt,value
2017-05-17T00:08:33.597Z,20.2
2017-05-17T00:18:42.716Z,20
2017-05-17T00:28:51.847Z,19.8
2017-05-17T00:39:01.026Z,19.9
2017-05-17T00:49:10.183Z,19.8
2017-05-17T00:59:19.390Z,19.7
2017-05-17T01:09:28.596Z,19.6
2017-05-17T01:19:37.791Z,19.5
2017-05-17T01:29:46.967Z,19.5
2017-05-17T01:39:56.181Z,19.4
2017-05-17T01:50:05.425Z,19.3
2017-05-17T02:00:14.713Z,19.3
2017-05-17T02:10:24.003Z,19.3
2017-05-17T02:20:33.269Z,19.3
2017-05-17T02:30:42.511Z,19.2
2017-05-17T02:40:51.801Z,19.1
2017-05-17T02:51:01.078Z,19.1
2017-05-17T03:01:10.439Z,18.9
2017-05-17T03:11:19.750Z,18.7
2017-05-17T03:21:29.097Z,18.6
2017-05-17T03:31:38.469Z,18.5
2017-05-17T03:41:47.845Z,18.4
2017-05-17T03:51:57.238Z,18.2
2017-05-17T04:02:06.795Z,18.1
2017-05-17T04:12:16.174Z,18.2
2017-05-17T04:22:25.601Z,17.9
2017-05-17T04:32:35.033Z,18
2017-05-17T04:42:44.401Z,18.3
2017-05-17T04:52:53.722Z,18.4
2017-05-17T05:03:03.080Z,18.5
2017-05-17T05:13:12.377Z,18.5
2017-05-17T05:23:21.654Z,18.5
2017-05-17T05:33:30.827Z,18.5
2017-05-17T05:43:39.904Z,18.5
2017-05-17T05:53:48.998Z,18.7
2017-05-17T06:03:58.000Z,18.8
2017-05-17T06:14:06.904Z,19
2017-05-17T06:24:15.755Z,19.2
2017-05-17T06:34:24.547Z,19.2
2017-05-17T06:44:33.262Z,19.6
2017-05-17T06:54:41.877Z,20
2017-05-17T07:04:50.407Z,20.4
2017-05-17T07:14:58.707Z,21.3
2017-05-17T07:25:06.761Z,21.6
2017-05-17T07:35:14.571Z,22.7
2017-05-17T07:45:22.140Z,23.1
2017-05-17T07:55:29.578Z,23.4
2017-05-17T08:05:36.967Z,23.6
2017-05-17T08:15:44.370Z,23.8
2017-05-17T08:25:51.753Z,24.4
2017-05-17T08:35:58.961Z,24.9
2017-05-17T08:46:06.026Z,25.2
2017-05-17T08:56:12.977Z,25.3
2017-05-17T09:06:19.943Z,25.3
2017-05-17T09:16:26.921Z,25.4
2017-05-17T09:26:33.910Z,25.5
2017-05-17T09:36:40.886Z,25.9
2017-05-17T09:46:47.847Z,25.9
2017-05-17T09:56:54.673Z,26.2
2017-05-17T10:07:01.485Z,25.8
2017-05-17T10:17:08.299Z,26.3
2017-05-17T10:27:15.086Z,26.4
2017-05-17T10:37:21.935Z,26
2017-05-17T10:47:28.886Z,26.7
2017-05-17T10:57:35.818Z,26.1
2017-05-17T11:07:42.718Z,26.6
2017-05-17T11:17:49.601Z,26.9
2017-05-17T11:27:56.488Z,26.7
2017-05-17T11:38:03.451Z,26.8
2017-05-17T11:48:10.396Z,26.7
2017-05-17T11:58:17.349Z,26.5
2017-05-17T12:08:24.262Z,26.6
2017-05-17T12:18:31.122Z,26.8
2017-05-17T12:28:38.020Z,27.6
2017-05-17T12:38:44.852Z,27.1
2017-05-17T12:48:51.756Z,27.2
2017-05-17T12:58:58.591Z,27.6
2017-05-17T13:09:05.382Z,27.3
2017-05-17T13:19:12.122Z,27.5
2017-05-17T13:29:18.813Z,27.8
2017-05-17T13:39:25.553Z,27.7
2017-05-17T13:49:32.305Z,27.7
2017-05-17T13:59:39.023Z,28.3
2017-05-17T14:09:45.659Z,27.7
2017-05-17T14:19:52.283Z,27.7
2017-05-17T14:29:58.938Z,28
2017-05-17T14:40:05.537Z,28.6
2017-05-17T14:50:12.024Z,27.7
2017-05-17T15:00:18.576Z,27.9
2017-05-17T15:10:25.201Z,28.3
2017-05-17T15:20:32.085Z,28.4
2017-05-17T15:30:38.951Z,28.6
2017-05-17T15:40:45.675Z,28.5
2017-05-17T15:50:52.240Z,28.8
2017-05-17T16:00:58.731Z,28.8
2017-05-17T16:11:05.305Z,28.5
2017-05-17T16:21:11.863Z,28.9
2017-05-17T16:31:18.498Z,28.9
2017-05-17T16:41:25.217Z,28.7
2017-05-17T16:51:31.921Z,28.5
2017-05-17T17:01:38.718Z,28.7
2017-05-17T17:11:45.681Z,28.4
2017-05-17T17:21:52.752Z,28.4
2017-05-17T17:31:59.741Z,28.3
2017-05-17T17:42:06.766Z,28.1
2017-05-17T17:52:13.929Z,28.1
2017-05-17T18:02:21.180Z,28
2017-05-17T18:12:28.411Z,27.9
2017-05-17T18:22:35.759Z,27.7
2017-05-17T18:32:43.244Z,27.4
2017-05-17T18:42:50.756Z,27.2
2017-05-17T18:52:58.391Z,26.9
2017-05-17T19:03:06.210Z,26.6
2017-05-17T19:13:14.108Z,26.3
2017-05-17T19:23:22.142Z,26.1
2017-05-17T19:33:30.265Z,25.9
2017-05-17T19:43:38.475Z,25.5
2017-05-17T19:53:46.708Z,25.3
2017-05-17T20:03:55.071Z,25.1
2017-05-17T20:14:03.491Z,25
2017-05-17T20:24:11.904Z,24.8
2017-05-17T20:34:20.329Z,24.6
2017-05-17T20:44:28.825Z,24.5
2017-05-17T20:54:37.276Z,24.3
2017-05-17T21:04:45.776Z,24
2017-05-17T21:14:54.305Z,23.9
2017-05-17T21:25:02.810Z,23.8
2017-05-17T21:35:11.302Z,23.6
2017-05-17T21:45:19.876Z,23.5
2017-05-17T21:55:28.420Z,23.5
2017-05-17T22:05:37.001Z,23.3
2017-05-17T22:15:45.631Z,23.4
2017-05-17T22:25:54.269Z,23.2
2017-05-17T22:36:02.919Z,23.1
2017-05-17T22:46:11.594Z,22.9
2017-05-17T22:56:20.361Z,22.7
2017-05-17T23:06:29.148Z,22.6
2017-05-17T23:16:37.884Z,22.4
2017-05-17T23:26:46.796Z,22.2
2017-05-17T23:36:55.738Z,22.1
2017-05-17T23:47:05.368Z,22
2017-05-17T23:57:13.714Z,22
